Terminal Aerodrome Forecast
Issued by NWS Twin Cities, MN

Home | Current Version | Previous Version | Text Only | Print | Product List | Glossary On
Versions: 1 2 3 4 5 6 7 8 9 10 11 12 13 14 15 16 17 18 19 20 21 22 23 24 25 26 27 28 29 30
000
FTUS43 KMPX 070520
TAFMSP
TAF
KMSP 070520Z 0706/0812 15013KT P6SM SCT040 BKN070
     FM071200 16014KT 4SM -SHRA BR SCT012 BKN025 OVC040
     FM071800 19012KT P6SM VCSH SCT025 BKN040 PROB30 0722/0802 4SM
      -TSRA BKN040CB
     FM080600 28010KT P6SM OVC025=

USA.gov is the U.S. government's official web portal to all federal, state and local government web resources and services.